sensor_id;sensor_type;location;lat;lon;timestamp;pressure;altitude;pressure_sealevel;temperature;humidity
48555;BME280;34336;48.270;16.716;2023-04-30T00:01:58;109325.25;;;18.16;86.68
48555;BME280;34336;48.270;16.716;2023-04-30T00:04:25;109325.25;;;18.16;85.44
48555;BME280;34336;48.270;16.716;2023-04-30T00:06:51;109325.25;;;18.16;84.58
48555;BME280;34336;48.270;16.716;2023-04-30T00:09:18;109325.25;;;18.16;83.96
48555;BME280;34336;48.270;16.716;2023-04-30T00:11:45;109325.25;;;18.16;83.47
48555;BME280;34336;48.270;16.716;2023-04-30T00:14:12;109325.25;;;18.16;83.79
48555;BME280;34336;48.270;16.716;2023-04-30T00:16:38;109325.25;;;18.16;83.69
48555;BME280;34336;48.270;16.716;2023-04-30T00:19:05;109325.25;;;18.16;82.52
48555;BME280;34336;48.270;16.716;2023-04-30T00:21:31;109325.25;;;18.16;83.56
48555;BME280;34336;48.270;16.716;2023-04-30T00:23:58;109325.25;;;18.16;83.97
48555;BME280;34336;48.270;16.716;2023-04-30T00:26:28;109325.25;;;18.16;84.06
48555;BME280;34336;48.270;16.716;2023-04-30T00:28:55;109325.25;;;18.16;83.57
48555;BME280;34336;48.270;16.716;2023-04-30T00:31:22;109325.25;;;18.16;83.34
48555;BME280;34336;48.270;16.716;2023-04-30T00:33:49;109325.25;;;18.16;83.13
48555;BME280;34336;48.270;16.716;2023-04-30T00:36:16;109325.25;;;18.16;82.95
48555;BME280;34336;48.270;16.716;2023-04-30T00:38:42;109325.25;;;18.16;83.57
48555;BME280;34336;48.270;16.716;2023-04-30T00:41:09;109325.25;;;18.16;84.47
48555;BME280;34336;48.270;16.716;2023-04-30T00:43:36;109325.25;;;18.16;85.54
48555;BME280;34336;48.270;16.716;2023-04-30T00:46:03;109325.25;;;18.16;85.72
48555;BME280;34336;48.270;16.716;2023-04-30T00:48:32;109325.25;;;18.16;85.92
48555;BME280;34336;48.270;16.716;2023-04-30T00:50:59;109325.25;;;18.16;86.50
48555;BME280;34336;48.270;16.716;2023-04-30T00:53:28;109325.25;;;18.16;86.85
48555;BME280;34336;48.270;16.716;2023-04-30T00:55:54;109325.25;;;18.16;86.96
48555;BME280;34336;48.270;16.716;2023-04-30T00:58:21;109325.25;;;18.16;87.32
48555;BME280;34336;48.270;16.716;2023-04-30T01:00:48;109325.25;;;18.16;87.04
48555;BME280;34336;48.270;16.716;2023-04-30T01:03:15;109325.25;;;18.16;87.29
48555;BME280;34336;48.270;16.716;2023-04-30T01:05:42;109325.25;;;18.16;87.40
48555;BME280;34336;48.270;16.716;2023-04-30T01:08:08;109325.25;;;18.16;87.21
48555;BME280;34336;48.270;16.716;2023-04-30T01:10:52;109325.25;;;18.16;87.33
48555;BME280;34336;48.270;16.716;2023-04-30T01:13:23;109325.25;;;18.16;87.24
48555;BME280;34336;48.270;16.716;2023-04-30T01:18:32;109325.25;;;18.16;87.94
48555;BME280;34336;48.270;16.716;2023-04-30T01:21:04;109325.25;;;18.16;88.12
48555;BME280;34336;48.270;16.716;2023-04-30T01:28:25;109325.25;;;18.16;88.28
48555;BME280;34336;48.270;16.716;2023-04-30T01:30:54;109325.25;;;18.16;88.60
48555;BME280;34336;48.270;16.716;2023-04-30T01:33:21;109325.25;;;18.16;89.29
48555;BME280;34336;48.270;16.716;2023-04-30T01:36:09;109325.25;;;18.16;89.76
48555;BME280;34336;48.270;16.716;2023-04-30T01:51:32;109325.25;;;18.16;92.22
48555;BME280;34336;48.270;16.716;2023-04-30T01:54:05;109325.25;;;18.16;92.80
48555;BME280;34336;48.270;16.716;2023-04-30T01:56:39;109325.25;;;18.16;93.35
48555;BME280;34336;48.270;16.716;2023-04-30T01:59:09;109325.25;;;18.16;93.64
48555;BME280;34336;48.270;16.716;2023-04-30T02:01:37;109325.25;;;18.16;93.80
48555;BME280;34336;48.270;16.716;2023-04-30T02:04:04;109325.25;;;18.16;94.43
48555;BME280;34336;48.270;16.716;2023-04-30T02:06:31;109325.25;;;18.16;94.80
48555;BME280;34336;48.270;16.716;2023-04-30T02:08:58;109325.25;;;18.16;94.17
48555;BME280;34336;48.270;16.716;2023-04-30T02:11:30;109325.25;;;18.16;94.09
48555;BME280;34336;48.270;16.716;2023-04-30T02:13:57;109325.25;;;18.16;93.48
48555;BME280;34336;48.270;16.716;2023-04-30T02:16:24;109325.25;;;18.16;93.77
48555;BME280;34336;48.270;16.716;2023-04-30T02:18:51;109325.25;;;18.16;93.24
48555;BME280;34336;48.270;16.716;2023-04-30T02:21:18;109325.25;;;18.16;92.80
48555;BME280;34336;48.270;16.716;2023-04-30T02:23:45;109325.25;;;18.16;92.58
48555;BME280;34336;48.270;16.716;2023-04-30T02:26:12;109325.25;;;18.16;92.07
48555;BME280;34336;48.270;16.716;2023-04-30T02:28:39;109325.25;;;18.16;92.19
48555;BME280;34336;48.270;16.716;2023-04-30T02:31:05;109325.25;;;18.16;92.43
48555;BME280;34336;48.270;16.716;2023-04-30T02:33:32;109325.25;;;18.16;92.74
48555;BME280;34336;48.270;16.716;2023-04-30T02:35:59;109325.25;;;18.16;92.75
48555;BME280;34336;48.270;16.716;2023-04-30T02:38:26;109325.25;;;18.16;92.88
48555;BME280;34336;48.270;16.716;2023-04-30T02:40:53;109325.25;;;18.16;93.00
48555;BME280;34336;48.270;16.716;2023-04-30T02:43:19;109325.25;;;18.16;92.90
48555;BME280;34336;48.270;16.716;2023-04-30T02:45:46;109325.25;;;18.16;92.85
48555;BME280;34336;48.270;16.716;2023-04-30T02:48:13;109325.25;;;18.16;92.43
48555;BME280;34336;48.270;16.716;2023-04-30T02:50:40;109325.25;;;18.16;92.98
48555;BME280;34336;48.270;16.716;2023-04-30T02:53:06;109325.25;;;18.16;92.50
48555;BME280;34336;48.270;16.716;2023-04-30T02:55:33;109325.25;;;18.16;92.48
48555;BME280;34336;48.270;16.716;2023-04-30T02:57:59;109325.25;;;18.16;92.34
48555;BME280;34336;48.270;16.716;2023-04-30T03:00:26;109325.25;;;18.16;92.21
48555;BME280;34336;48.270;16.716;2023-04-30T03:02:53;109325.25;;;18.16;92.32
48555;BME280;34336;48.270;16.716;2023-04-30T03:05:19;109325.25;;;18.16;92.65
48555;BME280;34336;48.270;16.716;2023-04-30T03:07:46;109325.25;;;18.16;92.69
48555;BME280;34336;48.270;16.716;2023-04-30T03:10:12;109325.25;;;18.16;92.89
48555;BME280;34336;48.270;16.716;2023-04-30T03:12:39;109325.25;;;18.16;93.14
48555;BME280;34336;48.270;16.716;2023-04-30T03:15:06;109325.25;;;18.16;93.43
48555;BME280;34336;48.270;16.716;2023-04-30T03:17:33;109325.25;;;18.16;93.10
48555;BME280;34336;48.270;16.716;2023-04-30T03:20:00;109325.25;;;18.16;92.70
48555;BME280;34336;48.270;16.716;2023-04-30T03:22:26;109325.25;;;18.16;92.48
48555;BME280;34336;48.270;16.716;2023-04-30T03:24:53;109325.25;;;18.16;92.23
48555;BME280;34336;48.270;16.716;2023-04-30T03:27:20;109325.25;;;18.16;92.21
48555;BME280;34336;48.270;16.716;2023-04-30T03:29:46;109325.25;;;18.16;92.03
48555;BME280;34336;48.270;16.716;2023-04-30T03:32:14;109325.25;;;18.16;92.39
48555;BME280;34336;48.270;16.716;2023-04-30T03:34:40;109325.25;;;18.16;92.40
48555;BME280;34336;48.270;16.716;2023-04-30T03:37:07;109325.25;;;18.16;92.42
48555;BME280;34336;48.270;16.716;2023-04-30T03:39:34;109325.25;;;18.16;92.76
48555;BME280;34336;48.270;16.716;2023-04-30T03:42:00;109325.25;;;18.16;93.02
48555;BME280;34336;48.270;16.716;2023-04-30T03:44:28;109325.25;;;18.16;93.16
48555;BME280;34336;48.270;16.716;2023-04-30T03:46:55;109325.25;;;18.16;93.22
48555;BME280;34336;48.270;16.716;2023-04-30T03:49:22;109325.25;;;18.16;93.16
48555;BME280;34336;48.270;16.716;2023-04-30T03:51:49;109325.25;;;18.16;92.78
48555;BME280;34336;48.270;16.716;2023-04-30T03:54:16;109325.25;;;18.16;92.21
48555;BME280;34336;48.270;16.716;2023-04-30T03:56:42;109325.25;;;18.16;92.37
48555;BME280;34336;48.270;16.716;2023-04-30T03:59:09;109325.25;;;18.16;91.62
48555;BME280;34336;48.270;16.716;2023-04-30T04:01:36;109325.25;;;18.16;90.71
48555;BME280;34336;48.270;16.716;2023-04-30T04:04:03;109325.25;;;18.16;88.76
48555;BME280;34336;48.270;16.716;2023-04-30T04:06:31;109325.25;;;18.16;85.61
48555;BME280;34336;48.270;16.716;2023-04-30T04:08:58;109325.25;;;18.16;81.31
48555;BME280;34336;48.270;16.716;2023-04-30T04:11:24;109325.25;;;18.16;80.96
48555;BME280;34336;48.270;16.716;2023-04-30T04:13:51;109325.25;;;18.16;79.61
48555;BME280;34336;48.270;16.716;2023-04-30T04:16:18;109325.25;;;18.16;77.08
48555;BME280;34336;48.270;16.716;2023-04-30T04:18:45;109325.25;;;18.16;76.82
48555;BME280;34336;48.270;16.716;2023-04-30T04:21:11;109325.25;;;18.16;78.34
48555;BME280;34336;48.270;16.716;2023-04-30T04:23:38;109325.25;;;18.16;79.49
48555;BME280;34336;48.270;16.716;2023-04-30T04:26:05;109325.25;;;18.16;79.11
48555;BME280;34336;48.270;16.716;2023-04-30T04:28:31;109325.25;;;18.16;75.26
48555;BME280;34336;48.270;16.716;2023-04-30T04:30:58;109325.25;;;18.16;69.71
48555;BME280;34336;48.270;16.716;2023-04-30T04:33:24;109325.25;;;18.16;65.82
48555;BME280;34336;48.270;16.716;2023-04-30T04:35:51;109325.25;;;18.16;64.34
48555;BME280;34336;48.270;16.716;2023-04-30T04:38:18;109325.25;;;18.16;62.65
48555;BME280;34336;48.270;16.716;2023-04-30T04:40:51;109325.25;;;18.16;60.65
48555;BME280;34336;48.270;16.716;2023-04-30T04:43:19;109325.25;;;18.16;59.69
48555;BME280;34336;48.270;16.716;2023-04-30T04:45:46;109325.25;;;18.16;56.88
48555;BME280;34336;48.270;16.716;2023-04-30T04:48:17;109325.25;;;18.16;56.38
48555;BME280;34336;48.270;16.716;2023-04-30T04:50:44;109325.25;;;18.16;55.36
48555;BME280;34336;48.270;16.716;2023-04-30T04:53:10;109325.25;;;18.16;54.72
48555;BME280;34336;48.270;16.716;2023-04-30T04:55:37;109325.25;;;18.16;53.67
48555;BME280;34336;48.270;16.716;2023-04-30T04:58:04;109325.25;;;18.16;52.54
48555;BME280;34336;48.270;16.716;2023-04-30T05:00:30;109325.25;;;18.16;52.86
48555;BME280;34336;48.270;16.716;2023-04-30T05:02:57;109325.25;;;18.16;54.81
48555;BME280;34336;48.270;16.716;2023-04-30T05:05:24;109325.25;;;18.16;52.69
48555;BME280;34336;48.270;16.716;2023-04-30T05:07:50;109325.25;;;18.16;54.16
48555;BME280;34336;48.270;16.716;2023-04-30T05:10:20;109325.25;;;18.16;59.09
48555;BME280;34336;48.270;16.716;2023-04-30T05:12:47;109325.25;;;18.16;62.49
48555;BME280;34336;48.270;16.716;2023-04-30T05:15:13;109325.25;;;18.16;66.09
48555;BME280;34336;48.270;16.716;2023-04-30T05:17:40;109325.25;;;18.16;67.39
48555;BME280;34336;48.270;16.716;2023-04-30T05:20:07;109325.25;;;18.16;69.28
48555;BME280;34336;48.270;16.716;2023-04-30T05:22:34;109325.25;;;18.16;70.20
48555;BME280;34336;48.270;16.716;2023-04-30T05:25:01;109325.25;;;18.16;70.37
48555;BME280;34336;48.270;16.716;2023-04-30T05:27:27;109325.25;;;18.16;70.29
48555;BME280;34336;48.270;16.716;2023-04-30T05:29:54;109325.25;;;18.16;69.26
48555;BME280;34336;48.270;16.716;2023-04-30T05:32:21;109325.25;;;18.16;68.58
48555;BME280;34336;48.270;16.716;2023-04-30T05:34:48;109325.25;;;18.16;68.00
48555;BME280;34336;48.270;16.716;2023-04-30T05:37:15;109325.25;;;18.16;65.51
48555;BME280;34336;48.270;16.716;2023-04-30T05:39:42;109325.25;;;18.16;65.41
48555;BME280;34336;48.270;16.716;2023-04-30T05:42:09;109325.25;;;18.16;65.55
48555;BME280;34336;48.270;16.716;2023-04-30T05:44:36;109325.25;;;18.16;63.17
48555;BME280;34336;48.270;16.716;2023-04-30T05:47:02;109325.25;;;18.16;59.10
48555;BME280;34336;48.270;16.716;2023-04-30T05:49:29;109325.25;;;18.16;57.13
48555;BME280;34336;48.270;16.716;2023-04-30T05:51:55;109325.25;;;18.16;55.58
48555;BME280;34336;48.270;16.716;2023-04-30T05:54:22;109325.25;;;18.16;55.49
48555;BME280;34336;48.270;16.716;2023-04-30T05:56:49;109325.25;;;18.16;53.50
48555;BME280;34336;48.270;16.716;2023-04-30T05:59:16;109325.25;;;18.16;54.09
48555;BME280;34336;48.270;16.716;2023-04-30T06:01:42;109325.25;;;18.16;56.36
48555;BME280;34336;48.270;16.716;2023-04-30T06:04:09;109325.25;;;18.16;60.02
48555;BME280;34336;48.270;16.716;2023-04-30T06:06:37;109325.25;;;18.16;61.94
48555;BME280;34336;48.270;16.716;2023-04-30T06:09:03;109325.25;;;18.16;63.54
48555;BME280;34336;48.270;16.716;2023-04-30T06:11:30;109325.25;;;18.16;63.35
48555;BME280;34336;48.270;16.716;2023-04-30T06:13:57;109325.25;;;18.16;62.16
48555;BME280;34336;48.270;16.716;2023-04-30T06:16:23;109325.25;;;18.16;58.22
48555;BME280;34336;48.270;16.716;2023-04-30T06:18:50;109325.25;;;18.16;54.21
48555;BME280;34336;48.270;16.716;2023-04-30T06:21:19;109325.25;;;18.16;51.88
48555;BME280;34336;48.270;16.716;2023-04-30T06:23:46;109325.25;;;18.16;48.35
48555;BME280;34336;48.270;16.716;2023-04-30T06:26:12;109325.25;;;18.16;49.89
48555;BME280;34336;48.270;16.716;2023-04-30T06:28:40;109325.25;;;18.16;48.66
48555;BME280;34336;48.270;16.716;2023-04-30T06:31:07;109325.25;;;18.16;49.11
48555;BME280;34336;48.270;16.716;2023-04-30T06:33:33;109325.25;;;18.16;48.39
48555;BME280;34336;48.270;16.716;2023-04-30T06:36:00;109325.25;;;18.16;49.05
48555;BME280;34336;48.270;16.716;2023-04-30T06:38:27;109325.25;;;18.16;50.07
48555;BME280;34336;48.270;16.716;2023-04-30T06:40:54;109325.25;;;18.16;50.07
48555;BME280;34336;48.270;16.716;2023-04-30T06:43:20;109325.25;;;18.16;48.27
48555;BME280;34336;48.270;16.716;2023-04-30T06:45:47;109325.25;;;18.16;47.24
48555;BME280;34336;48.270;16.716;2023-04-30T06:48:14;109325.25;;;18.16;44.26
48555;BME280;34336;48.270;16.716;2023-04-30T06:50:40;109325.25;;;18.16;42.17
48555;BME280;34336;48.270;16.716;2023-04-30T06:53:11;109325.25;;;18.16;40.25
48555;BME280;34336;48.270;16.716;2023-04-30T06:55:37;109325.25;;;18.16;43.93
48555;BME280;34336;48.270;16.716;2023-04-30T06:58:04;109325.25;;;18.16;41.35
48555;BME280;34336;48.270;16.716;2023-04-30T07:00:31;109325.25;;;18.16;43.81
48555;BME280;34336;48.270;16.716;2023-04-30T07:02:58;109325.25;;;18.16;44.52
48555;BME280;34336;48.270;16.716;2023-04-30T07:05:30;109325.25;;;18.16;47.72
48555;BME280;34336;48.270;16.716;2023-04-30T07:07:57;109325.25;;;18.16;49.20
48555;BME280;34336;48.270;16.716;2023-04-30T07:10:23;109325.25;;;18.16;50.35
48555;BME280;34336;48.270;16.716;2023-04-30T07:12:50;109325.25;;;18.16;50.87
48555;BME280;34336;48.270;16.716;2023-04-30T07:15:17;109325.25;;;18.16;51.63
48555;BME280;34336;48.270;16.716;2023-04-30T07:17:43;109325.25;;;18.16;52.61
48555;BME280;34336;48.270;16.716;2023-04-30T07:20:10;109325.25;;;18.16;52.73
48555;BME280;34336;48.270;16.716;2023-04-30T07:22:38;109325.25;;;18.16;52.87
48555;BME280;34336;48.270;16.716;2023-04-30T07:25:05;109325.25;;;18.16;53.05
48555;BME280;34336;48.270;16.716;2023-04-30T07:27:31;109325.25;;;18.16;52.97
48555;BME280;34336;48.270;16.716;2023-04-30T07:29:58;109325.25;;;18.16;52.04
48555;BME280;34336;48.270;16.716;2023-04-30T07:32:25;109325.25;;;18.16;53.97
48555;BME280;34336;48.270;16.716;2023-04-30T07:34:52;109325.25;;;18.16;54.00
48555;BME280;34336;48.270;16.716;2023-04-30T07:37:19;109325.25;;;18.16;51.91
48555;BME280;34336;48.270;16.716;2023-04-30T07:39:47;109325.25;;;18.16;52.59
48555;BME280;34336;48.270;16.716;2023-04-30T07:42:13;109325.25;;;18.16;53.31
48555;BME280;34336;48.270;16.716;2023-04-30T07:44:40;109325.25;;;18.16;52.94
48555;BME280;34336;48.270;16.716;2023-04-30T07:47:06;109325.25;;;18.16;52.75
48555;BME280;34336;48.270;16.716;2023-04-30T07:49:33;109325.25;;;18.16;53.00
48555;BME280;34336;48.270;16.716;2023-04-30T07:52:00;109325.25;;;18.16;53.52
48555;BME280;34336;48.270;16.716;2023-04-30T07:54:26;109325.25;;;18.16;51.88
48555;BME280;34336;48.270;16.716;2023-04-30T07:56:53;109325.25;;;18.16;52.83
48555;BME280;34336;48.270;16.716;2023-04-30T07:59:25;109325.25;;;18.16;52.02
48555;BME280;34336;48.270;16.716;2023-04-30T08:01:52;109325.25;;;18.16;51.26
48555;BME280;34336;48.270;16.716;2023-04-30T08:04:18;109325.25;;;18.16;51.72
48555;BME280;34336;48.270;16.716;2023-04-30T08:06:45;109325.25;;;18.16;51.62
48555;BME280;34336;48.270;16.716;2023-04-30T08:09:12;109325.25;;;18.16;53.71
48555;BME280;34336;48.270;16.716;2023-04-30T08:11:39;109325.25;;;18.16;51.85
48555;BME280;34336;48.270;16.716;2023-04-30T08:14:05;109325.25;;;18.16;50.40
48555;BME280;34336;48.270;16.716;2023-04-30T08:16:32;109325.25;;;18.16;50.22
48555;BME280;34336;48.270;16.716;2023-04-30T08:18:59;109325.25;;;18.16;50.12
48555;BME280;34336;48.270;16.716;2023-04-30T08:21:25;109325.25;;;18.16;49.27
48555;BME280;34336;48.270;16.716;2023-04-30T08:23:53;109325.25;;;18.16;50.71
48555;BME280;34336;48.270;16.716;2023-04-30T08:26:20;109325.25;;;18.16;48.34
48555;BME280;34336;48.270;16.716;2023-04-30T08:28:47;109325.25;;;18.16;48.92
48555;BME280;34336;48.270;16.716;2023-04-30T08:31:13;109325.25;;;18.16;48.74
48555;BME280;34336;48.270;16.716;2023-04-30T08:33:40;109325.25;;;18.16;48.00
48555;BME280;34336;48.270;16.716;2023-04-30T08:36:07;109325.25;;;18.16;47.63
48555;BME280;34336;48.270;16.716;2023-04-30T08:38:33;109325.25;;;18.16;47.61
48555;BME280;34336;48.270;16.716;2023-04-30T08:41:12;109325.25;;;18.16;45.92
48555;BME280;34336;48.270;16.716;2023-04-30T08:43:39;109325.25;;;18.16;46.84
48555;BME280;34336;48.270;16.716;2023-04-30T08:46:06;109325.25;;;18.16;46.66
48555;BME280;34336;48.270;16.716;2023-04-30T08:48:33;109325.25;;;18.16;47.45
48555;BME280;34336;48.270;16.716;2023-04-30T08:51:00;109325.25;;;18.16;47.80
48555;BME280;34336;48.270;16.716;2023-04-30T08:53:32;109325.25;;;18.16;46.16
48555;BME280;34336;48.270;16.716;2023-04-30T08:56:00;109325.25;;;18.16;46.14
48555;BME280;34336;48.270;16.716;2023-04-30T08:58:26;109325.25;;;18.16;47.92
48555;BME280;34336;48.270;16.716;2023-04-30T09:00:53;109325.25;;;18.16;46.07
48555;BME280;34336;48.270;16.716;2023-04-30T09:03:20;109325.25;;;18.16;47.59
48555;BME280;34336;48.270;16.716;2023-04-30T09:05:49;109325.25;;;18.16;47.27
48555;BME280;34336;48.270;16.716;2023-04-30T09:08:16;109325.25;;;18.16;47.33
48555;BME280;34336;48.270;16.716;2023-04-30T09:10:43;109325.25;;;18.16;48.73
48555;BME280;34336;48.270;16.716;2023-04-30T09:13:10;109325.25;;;18.16;48.34
48555;BME280;34336;48.270;16.716;2023-04-30T09:15:39;109325.25;;;18.16;46.97
48555;BME280;34336;48.270;16.716;2023-04-30T09:18:14;109325.25;;;18.16;48.28
48555;BME280;34336;48.270;16.716;2023-04-30T09:20:53;109325.25;;;18.16;46.08
48555;BME280;34336;48.270;16.716;2023-04-30T09:23:19;109325.25;;;18.16;47.09
48555;BME280;34336;48.270;16.716;2023-04-30T09:25:46;109325.25;;;18.16;44.76
48555;BME280;34336;48.270;16.716;2023-04-30T09:28:13;109325.25;;;18.16;45.03
48555;BME280;34336;48.270;16.716;2023-04-30T09:30:40;109325.25;;;18.16;45.86
48555;BME280;34336;48.270;16.716;2023-04-30T09:33:07;109325.25;;;18.16;46.74
48555;BME280;34336;48.270;16.716;2023-04-30T09:35:38;109325.25;;;18.16;44.52
48555;BME280;34336;48.270;16.716;2023-04-30T09:38:05;109325.25;;;18.16;44.73
48555;BME280;34336;48.270;16.716;2023-04-30T09:40:35;109325.25;;;18.16;45.52
48555;BME280;34336;48.270;16.716;2023-04-30T09:43:03;109325.25;;;18.16;45.33
48555;BME280;34336;48.270;16.716;2023-04-30T09:45:42;109325.25;;;18.16;44.73
48555;BME280;34336;48.270;16.716;2023-04-30T09:48:10;109325.25;;;18.16;46.04
48555;BME280;34336;48.270;16.716;2023-04-30T09:50:43;109325.25;;;18.16;46.67
48555;BME280;34336;48.270;16.716;2023-04-30T09:53:11;109325.25;;;18.16;44.56
48555;BME280;34336;48.270;16.716;2023-04-30T09:55:44;109325.25;;;18.16;44.04
48555;BME280;34336;48.270;16.716;2023-04-30T09:58:11;109325.25;;;18.16;44.29
48555;BME280;34336;48.270;16.716;2023-04-30T10:00:38;109325.25;;;18.16;45.20
48555;BME280;34336;48.270;16.716;2023-04-30T10:03:06;109325.25;;;18.16;45.15
48555;BME280;34336;48.270;16.716;2023-04-30T10:05:40;109325.25;;;18.16;46.52
48555;BME280;34336;48.270;16.716;2023-04-30T10:08:12;109325.25;;;18.16;45.65
48555;BME280;34336;48.270;16.716;2023-04-30T10:10:42;109325.25;;;18.16;44.59
48555;BME280;34336;48.270;16.716;2023-04-30T10:13:10;109325.25;;;18.16;43.95
48555;BME280;34336;48.270;16.716;2023-04-30T10:15:42;109325.25;;;18.16;45.55
48555;BME280;34336;48.270;16.716;2023-04-30T10:18:18;109325.25;;;18.16;45.36
48555;BME280;34336;48.270;16.716;2023-04-30T10:20:46;109325.25;;;18.16;47.24
48555;BME280;34336;48.270;16.716;2023-04-30T10:23:14;109325.25;;;18.16;44.27
48555;BME280;34336;48.270;16.716;2023-04-30T10:25:41;109325.25;;;18.16;44.11
48555;BME280;34336;48.270;16.716;2023-04-30T10:28:09;109325.25;;;18.16;45.94
48555;BME280;34336;48.270;16.716;2023-04-30T10:30:36;109325.25;;;18.16;45.63
48555;BME280;34336;48.270;16.716;2023-04-30T10:36:04;109325.25;;;18.16;44.31
48555;BME280;34336;48.270;16.716;2023-04-30T10:38:30;109325.25;;;18.16;43.59
48555;BME280;34336;48.270;16.716;2023-04-30T10:40:58;109325.25;;;18.16;45.71
48555;BME280;34336;48.270;16.716;2023-04-30T10:43:28;109325.25;;;18.16;42.23
48555;BME280;34336;48.270;16.716;2023-04-30T10:45:58;109325.25;;;18.16;43.91
48555;BME280;34336;48.270;16.716;2023-04-30T10:48:25;109325.25;;;18.16;44.84
48555;BME280;34336;48.270;16.716;2023-04-30T10:50:56;109325.25;;;18.16;44.58
48555;BME280;34336;48.270;16.716;2023-04-30T10:53:24;109325.25;;;18.16;44.02
48555;BME280;34336;48.270;16.716;2023-04-30T10:55:53;109325.25;;;18.16;43.69
48555;BME280;34336;48.270;16.716;2023-04-30T10:58:26;109325.25;;;18.16;45.07
48555;BME280;34336;48.270;16.716;2023-04-30T11:01:02;109325.25;;;18.16;43.98
48555;BME280;34336;48.270;16.716;2023-04-30T11:03:29;109325.25;;;18.16;44.83
48555;BME280;34336;48.270;16.716;2023-04-30T11:05:58;109325.25;;;18.16;45.31
48555;BME280;34336;48.270;16.716;2023-04-30T11:08:33;109325.25;;;18.16;43.62
48555;BME280;34336;48.270;16.716;2023-04-30T11:11:00;109325.25;;;18.16;42.59
48555;BME280;34336;48.270;16.716;2023-04-30T11:13:40;109325.25;;;18.16;40.83
48555;BME280;34336;48.270;16.716;2023-04-30T11:16:07;109325.25;;;18.16;42.28
48555;BME280;34336;48.270;16.716;2023-04-30T11:18:39;109325.25;;;18.16;42.85
48555;BME280;34336;48.270;16.716;2023-04-30T11:21:07;109325.25;;;18.16;41.74
48555;BME280;34336;48.270;16.716;2023-04-30T11:23:33;109325.25;;;18.16;42.27
48555;BME280;34336;48.270;16.716;2023-04-30T11:26:07;109325.25;;;18.16;43.83
48555;BME280;34336;48.270;16.716;2023-04-30T11:28:35;109325.25;;;18.16;42.69
48555;BME280;34336;48.270;16.716;2023-04-30T11:31:02;109325.25;;;18.16;44.09
48555;BME280;34336;48.270;16.716;2023-04-30T11:33:29;109325.25;;;18.16;44.32
48555;BME280;34336;48.270;16.716;2023-04-30T11:35:57;109325.25;;;18.16;45.33
48555;BME280;34336;48.270;16.716;2023-04-30T11:38:27;109325.25;;;18.16;45.99
48555;BME280;34336;48.270;16.716;2023-04-30T11:40:57;109325.25;;;18.16;42.72
48555;BME280;34336;48.270;16.716;2023-04-30T11:43:25;109325.25;;;18.16;44.05
48555;BME280;34336;48.270;16.716;2023-04-30T11:46:05;109325.25;;;18.16;44.44
48555;BME280;34336;48.270;16.716;2023-04-30T11:48:33;109325.25;;;18.16;44.35
48555;BME280;34336;48.270;16.716;2023-04-30T11:51:03;109325.25;;;18.16;42.71
48555;BME280;34336;48.270;16.716;2023-04-30T11:53:30;109325.25;;;18.16;42.91
48555;BME280;34336;48.270;16.716;2023-04-30T11:56:00;109325.25;;;18.16;43.56
48555;BME280;34336;48.270;16.716;2023-04-30T11:58:27;109325.25;;;18.16;45.20
48555;BME280;34336;48.270;16.716;2023-04-30T12:00:58;109325.25;;;18.16;44.92
48555;BME280;34336;48.270;16.716;2023-04-30T12:03:25;109325.25;;;18.16;44.88
48555;BME280;34336;48.270;16.716;2023-04-30T12:05:52;109325.25;;;18.16;43.96
48555;BME280;34336;48.270;16.716;2023-04-30T12:08:19;109325.25;;;18.16;43.91
48555;BME280;34336;48.270;16.716;2023-04-30T12:10:45;109325.25;;;18.16;43.71
48555;BME280;34336;48.270;16.716;2023-04-30T12:13:13;109325.25;;;18.16;43.96
48555;BME280;34336;48.270;16.716;2023-04-30T12:15:42;109325.25;;;18.16;44.77
48555;BME280;34336;48.270;16.716;2023-04-30T12:18:12;109325.25;;;18.16;44.86
48555;BME280;34336;48.270;16.716;2023-04-30T12:20:39;109325.25;;;18.16;44.75
48555;BME280;34336;48.270;16.716;2023-04-30T12:23:06;109325.25;;;18.16;45.21
48555;BME280;34336;48.270;16.716;2023-04-30T12:25:39;109325.25;;;18.16;45.76
48555;BME280;34336;48.270;16.716;2023-04-30T12:28:05;109325.25;;;18.16;45.98
48555;BME280;34336;48.270;16.716;2023-04-30T12:30:32;109325.25;;;18.16;45.62
48555;BME280;34336;48.270;16.716;2023-04-30T12:32:59;109325.25;;;18.16;45.86
48555;BME280;34336;48.270;16.716;2023-04-30T12:35:26;109325.25;;;18.16;45.11
48555;BME280;34336;48.270;16.716;2023-04-30T12:38:00;109325.25;;;18.16;45.59
48555;BME280;34336;48.270;16.716;2023-04-30T12:40:27;109325.25;;;18.16;44.55
48555;BME280;34336;48.270;16.716;2023-04-30T12:48:13;109325.25;;;18.16;44.36
48555;BME280;34336;48.270;16.716;2023-04-30T12:50:40;109325.25;;;18.16;45.42
48555;BME280;34336;48.270;16.716;2023-04-30T12:53:09;109325.25;;;18.16;44.81
48555;BME280;34336;48.270;16.716;2023-04-30T12:55:36;109325.25;;;18.16;44.96
48555;BME280;34336;48.270;16.716;2023-04-30T12:58:12;109325.25;;;18.16;43.45
48555;BME280;34336;48.270;16.716;2023-04-30T13:00:43;109325.25;;;18.16;44.30
48555;BME280;34336;48.270;16.716;2023-04-30T13:03:10;109325.25;;;18.16;43.19
48555;BME280;34336;48.270;16.716;2023-04-30T13:05:38;109325.25;;;18.16;42.33
48555;BME280;34336;48.270;16.716;2023-04-30T13:08:05;109325.25;;;18.16;42.33
48555;BME280;34336;48.270;16.716;2023-04-30T13:10:32;109325.25;;;18.16;43.39
48555;BME280;34336;48.270;16.716;2023-04-30T13:12:59;109325.25;;;18.16;43.79